Sturgeon Bay, WI (54235)

9:12 AM CST on January 24, 2017 (GMT -0600)
Leif Everson Observatory | | Change Station
Active Advisory: Dense Fog Advisory

Elev 636 ft 44.83 °N, 87.34 °W | Updated 9 seconds ago

Overcast
Overcast
35.0 °F
Feels Like 35 °F
N
0.0
Wind Variable Wind from NW
Gusts 0.0 mph

Today
High -- | Low -- °F
--% Chance of Precip.
Yesterday
High -- | Low -- °F
Precip. -- in
Pressure 29.92 in
Visibility 2.0 miles
Clouds Overcast 300 ft
Windchill 35 °F
Dew Point 35 °F
Humidity 100%
Rainfall 0.00 in
Snow Depth Not available.
7:16 AM 4:47 PM
Waning Crescent, 11% visible
METAR KSUE 241456Z AUTO 27004KT 2SM BR OVC003 01/01 A2985 RMK AO2 SLP132 T00110011 51007 FZRANO
Pressure 29.92 in
Visibility 2.0 miles
Clouds Overcast 300 ft
Windchill 35 °F
Dew Point 35 °F
Humidity 100%
Rainfall 0.00 in
Snow Depth Not available.
7:16 AM 4:47 PM
Waning Crescent, 11% visible
METAR KSUE 241456Z AUTO 27004KT 2SM BR OVC003 01/01 A2985 RMK AO2 SLP132 T00110011 51007 FZRANO

Get Your Daily Forecast Email!

Thanks for signing up!

Be on the lookout for a verification email in your inbox.

You'll start receiving the daily forecast at 8 AM.

×

10-Day Weather Forecast

Almanac

Astronomy

Jan. 24, 2017 Rise Set
Actual Time
Civil Twilight
Nautical Twilight
Astronomical Twilight
Moon
Length of Visible Light
Length of Day
Tomorrow will be .
, % of the Moon is Illuminated

Today's Extremes

State Highs State Lows

Community

WunderPhotos

Upload Photos

1,962,540 photos uploaded!

WunderBlog® & News

Nearby

Air Quality

  Air Quality AQ Index Pollutant
Not available.

Snow Depth

Station Depth Elevation

Earthquake Activity

City Distance Mag. Time & Date
Minimum magnitude displayed is 2.5.

Coastal Water Temperatures

Place Temperature

Stations

Nearby Weather Stations

Station Location Temp. Windchill Dew Point Humidity Wind Precip. Elev Updated Type
                   

Watches & Warnings

Dense Fog Advisory
Issued: 3:57 AM CST Jan. 24, 2017 – National Weather Service

... Dense fog advisory remains in effect until 10 am CST this
morning...

* dense fog will reduce visibilities to a quarter mile or less
through late morning.

* The dense fog will create locally hazardous travel conditions
due to poor visibilities.

Precautionary/preparedness actions...

A dense fog advisory means visibilities will frequently be
reduced to less than one quarter mile. If driving... slow down...
use your low beam headlights... and keep a safe distance from other
vehicles.


Kieckbusch